createdAt,value
2022-12-25T00:01:14.703Z,100305.69
2022-12-25T00:06:18.518Z,100306.91
2022-12-25T00:11:22.266Z,100288.78
2022-12-25T00:16:27.938Z,100305.81
2022-12-25T00:21:30.766Z,100302.31
2022-12-25T00:26:33.538Z,100298.53
2022-12-25T00:31:37.783Z,100296.81
2022-12-25T00:36:42.167Z,100287.75
2022-12-25T00:42:02.852Z,100286.50
2022-12-25T00:47:07.204Z,100288.47
2022-12-25T00:52:10.979Z,100293.13
2022-12-25T00:57:13.824Z,100285.78
2022-12-25T01:02:26.889Z,100300.97
2022-12-25T01:07:29.813Z,100291.88
2022-12-25T01:12:33.365Z,100287.41
2022-12-25T01:17:37.936Z,100300.84
2022-12-25T01:22:40.861Z,100318.75
2022-12-25T01:27:44.133Z,100325.66
2022-12-25T01:32:48.297Z,100328.56
2022-12-25T01:37:51.114Z,100335.91
2022-12-25T01:42:53.857Z,100336.94
2022-12-25T01:47:58.423Z,100329.97
2022-12-25T01:53:01.483Z,100336.06
2022-12-25T01:58:04.549Z,100345.13
2022-12-25T02:03:08.885Z,100355.16
2022-12-25T02:08:13.653Z,100343.06
2022-12-25T02:13:19.159Z,100334.78
2022-12-25T02:18:33.847Z,100336.94
2022-12-25T02:24:25.373Z,100338.44
2022-12-25T02:29:37.707Z,100339.75
2022-12-25T02:34:48.371Z,100340.56
2022-12-25T02:40:00.720Z,100341.13
2022-12-25T02:45:22.940Z,100341.44
2022-12-25T02:50:44.879Z,100336.47
2022-12-25T02:56:08.593Z,100335.81
2022-12-25T03:01:33.480Z,100327.09
2022-12-25T03:06:44.316Z,100334.66
2022-12-25T03:12:01.011Z,100330.53
2022-12-25T03:17:06.635Z,100332.88
2022-12-25T03:22:31.239Z,100341.50
2022-12-25T03:27:36.156Z,100342.66
2022-12-25T03:32:47.283Z,100350.06
2022-12-25T03:38:14.685Z,100356.81
2022-12-25T03:43:45.105Z,100348.41
2022-12-25T03:49:14.614Z,100362.16
2022-12-25T03:54:41.814Z,100368.06
2022-12-25T04:00:01.966Z,100365.56
2022-12-25T04:05:30.791Z,100370.28
2022-12-25T04:10:50.995Z,100365.09
2022-12-25T04:16:23.310Z,100358.09
2022-12-25T04:21:45.168Z,100363.69
2022-12-25T04:27:05.316Z,100365.91
2022-12-25T04:32:26.024Z,100368.72
2022-12-25T04:37:30.294Z,100370.63
2022-12-25T04:42:33.079Z,100369.97
2022-12-25T04:47:35.881Z,100385.44
2022-12-25T04:52:42.041Z,100388.34
2022-12-25T04:57:44.843Z,100383.88
2022-12-25T05:02:47.789Z,100381.31
2022-12-25T05:07:51.955Z,100378.84
2022-12-25T05:12:54.894Z,100374.50
2022-12-25T05:17:57.796Z,100366.44
2022-12-25T05:23:02.228Z,100365.84
2022-12-25T05:28:05.507Z,100365.97
2022-12-25T05:33:08.312Z,100354.47
2022-12-25T05:38:12.499Z,100350.00
2022-12-25T05:43:15.248Z,100345.69
2022-12-25T05:48:18.371Z,100337.72
2022-12-25T05:53:22.643Z,100333.50
2022-12-25T05:58:25.377Z,100336.19
2022-12-25T06:03:28.300Z,100323.88
2022-12-25T06:08:33.302Z,100323.13
2022-12-25T06:13:36.745Z,100317.75
2022-12-25T06:18:41.558Z,100320.56
2022-12-25T06:23:46.336Z,100325.16
2022-12-25T06:28:49.160Z,100331.59
2022-12-25T06:33:52.248Z,100317.38
2022-12-25T06:38:57.130Z,100322.75
2022-12-25T06:44:02.207Z,100339.94
2022-12-25T06:49:04.953Z,100350.78
2022-12-25T06:54:09.871Z,100352.53
2022-12-25T06:59:12.956Z,100343.78
2022-12-25T07:04:22.205Z,100343.78
2022-12-25T07:09:26.295Z,100352.03
2022-12-25T07:14:29.073Z,100346.66
2022-12-25T07:19:31.898Z,100362.00
2022-12-25T07:24:36.074Z,100362.97
2022-12-25T07:29:39.107Z,100374.56
2022-12-25T07:34:41.956Z,100371.78
2022-12-25T07:39:46.359Z,100367.31
2022-12-25T07:44:49.207Z,100360.28
2022-12-25T07:49:51.948Z,100364.91
2022-12-25T07:54:56.149Z,100352.44
2022-12-25T07:59:58.961Z,100344.25
2022-12-25T08:05:01.826Z,100349.41
2022-12-25T08:10:07.124Z,100347.75
2022-12-25T08:15:10.671Z,100352.38
2022-12-25T08:20:14.829Z,100335.91
2022-12-25T08:25:19.204Z,100331.81
2022-12-25T08:30:22.360Z,100321.19
2022-12-25T08:35:26.198Z,100315.09
2022-12-25T08:40:30.390Z,100311.97
2022-12-25T08:45:35.454Z,100316.78
2022-12-25T08:50:38.479Z,100319.19
2022-12-25T08:55:43.127Z,100302.03
2022-12-25T09:00:45.976Z,100316.22
2022-12-25T09:05:48.726Z,100299.06
2022-12-25T09:10:53.184Z,100299.84
2022-12-25T09:15:56.182Z,100307.69
2022-12-25T09:21:00.519Z,100306.56
2022-12-25T09:26:06.437Z,100294.84
2022-12-25T09:31:09.571Z,100294.53
2022-12-25T09:36:12.669Z,100291.09
2022-12-25T09:41:21.045Z,100279.41
2022-12-25T09:46:34.840Z,100269.63
2022-12-25T09:51:45.330Z,100277.66
2022-12-25T09:56:49.699Z,100281.13
2022-12-25T10:02:11.413Z,100282.06
2022-12-25T10:07:24.707Z,100275.84
2022-12-25T10:12:40.795Z,100265.22
2022-12-25T10:18:01.211Z,100269.50
2022-12-25T10:23:10.348Z,100269.13
2022-12-25T10:28:20.774Z,100252.94
2022-12-25T10:33:23.853Z,100242.09
2022-12-25T10:38:26.643Z,100240.25
2022-12-25T10:43:39.666Z,100231.81
2022-12-25T10:48:46.175Z,100224.91
2022-12-25T10:53:49.153Z,100227.28
2022-12-25T10:59:05.236Z,100219.47
2022-12-25T11:04:08.656Z,100208.56
2022-12-25T11:09:17.803Z,100188.84
2022-12-25T11:14:23.201Z,100182.13
2022-12-25T11:19:28.962Z,100171.13
2022-12-25T11:24:34.966Z,100162.56
2022-12-25T11:29:46.002Z,100152.66
2022-12-25T11:34:50.606Z,100127.59
2022-12-25T11:39:53.557Z,100108.44
2022-12-25T11:45:05.321Z,100092.94
2022-12-25T11:50:20.353Z,100097.91
2022-12-25T11:55:33.718Z,100091.41
2022-12-25T12:00:38.085Z,100098.56
2022-12-25T12:05:47.013Z,100110.91
2022-12-25T12:11:15.830Z,100098.22
2022-12-25T12:16:20.575Z,100071.75
2022-12-25T12:21:25.332Z,100054.09
2022-12-25T12:26:30.404Z,100013.53
2022-12-25T12:31:43.967Z,100057.97
2022-12-25T12:36:47.108Z,100066.47
2022-12-25T12:41:50.517Z,100065.06
2022-12-25T12:46:57.979Z,100075.94
2022-12-25T12:52:06.216Z,100067.84
2022-12-25T12:57:25.263Z,100065.16
2022-12-25T13:03:05.742Z,100066.81
2022-12-25T13:08:26.557Z,100062.47
2022-12-25T13:13:35.788Z,100072.38
2022-12-25T13:18:40.896Z,100066.38
2022-12-25T13:23:44.105Z,100053.91
2022-12-25T13:28:48.139Z,100037.66
2022-12-25T13:33:59.034Z,100034.53
2022-12-25T13:39:02.447Z,100040.56
2022-12-25T13:44:12.954Z,100039.34
2022-12-25T13:49:19.044Z,100028.72
2022-12-25T13:54:22.264Z,100025.91
2022-12-25T13:59:54.230Z,100012.38
2022-12-25T14:04:58.538Z,99999.78
2022-12-25T14:10:03.568Z,99987.19
2022-12-25T14:15:07.867Z,100005.28
2022-12-25T14:20:26.006Z,100003.53
2022-12-25T14:25:31.280Z,99997.94
2022-12-25T14:30:34.655Z,100014.19
2022-12-25T14:35:39.044Z,100022.47
2022-12-25T14:40:45.266Z,100026.44
2022-12-25T14:45:56.481Z,100003.22
2022-12-25T14:51:04.362Z,99998.91
2022-12-25T14:56:08.999Z,99995.47
2022-12-25T15:01:21.969Z,99986.00
2022-12-25T15:06:26.601Z,99981.72
2022-12-25T15:11:30.526Z,99961.06
2022-12-25T15:16:39.594Z,99951.78
2022-12-25T15:21:44.435Z,99937.41
2022-12-25T15:26:47.265Z,99936.53
2022-12-25T15:31:50.183Z,99927.28
2022-12-25T15:36:54.679Z,99947.72
2022-12-25T15:42:12.739Z,99935.13
2022-12-25T15:47:17.409Z,99935.75
2022-12-25T15:52:21.557Z,99901.56
2022-12-25T15:57:26.290Z,99917.38
2022-12-25T16:02:29.261Z,99897.69
2022-12-25T16:07:33.661Z,99891.09
2022-12-25T16:12:36.400Z,99884.97
2022-12-25T16:17:39.776Z,99876.91
2022-12-25T16:22:43.921Z,99860.13
2022-12-25T16:27:47.251Z,99858.41
2022-12-25T16:32:51.730Z,99849.81
2022-12-25T16:37:56.075Z,99830.97
2022-12-25T16:42:59.217Z,99826.72
2022-12-25T16:48:02.021Z,99828.41
2022-12-25T16:53:06.429Z,99820.47
2022-12-25T16:58:09.252Z,99819.63
2022-12-25T17:03:12.214Z,99804.53
2022-12-25T17:08:16.563Z,99788.94
2022-12-25T17:13:19.598Z,99768.28
2022-12-25T17:18:22.372Z,99787.56
2022-12-25T17:23:26.485Z,99789.25
2022-12-25T17:28:29.368Z,99782.06
2022-12-25T17:33:32.355Z,99755.28
2022-12-25T17:38:50.786Z,99750.88
2022-12-25T17:43:53.874Z,99738.31
2022-12-25T17:48:59.890Z,99744.53
2022-12-25T17:54:04.291Z,99738.50
2022-12-25T17:59:10.454Z,99734.22
2022-12-25T18:04:13.687Z,99733.38
2022-12-25T18:09:18.794Z,99719.09
2022-12-25T18:14:22.119Z,99713.59
2022-12-25T18:19:24.925Z,99708.31
2022-12-25T18:24:29.281Z,99705.84
2022-12-25T18:29:32.108Z,99705.13
2022-12-25T18:34:34.989Z,99712.34
2022-12-25T18:39:39.262Z,99700.94
2022-12-25T18:44:42.029Z,99703.75
2022-12-25T18:49:44.781Z,99721.72
2022-12-25T18:54:49.390Z,99714.38
2022-12-25T18:59:53.574Z,99716.94
2022-12-25T19:04:56.644Z,99714.81
2022-12-25T19:10:00.816Z,99707.41
2022-12-25T19:15:04.001Z,99708.47
2022-12-25T19:20:07.805Z,99695.91
2022-12-25T19:25:12.216Z,99705.88
2022-12-25T19:30:15.743Z,99706.22
2022-12-25T19:35:18.750Z,99692.91
2022-12-25T19:40:23.124Z,99694.59
2022-12-25T19:45:25.958Z,99679.88
2022-12-25T19:50:32.761Z,99674.69
2022-12-25T19:55:36.954Z,99676.22
2022-12-25T20:00:40.334Z,99674.41
2022-12-25T20:05:45.559Z,99677.69
2022-12-25T20:10:50.243Z,99678.16
2022-12-25T20:15:52.990Z,99664.81
2022-12-25T20:21:01.557Z,99663.22
2022-12-25T20:26:06.284Z,99660.19
2022-12-25T20:31:11.390Z,99664.56
2022-12-25T20:36:14.401Z,99665.16
2022-12-25T20:41:29.559Z,99666.78
2022-12-25T20:46:32.950Z,99678.75
2022-12-25T20:51:36.184Z,99683.66
2022-12-25T20:56:40.378Z,99672.03
2022-12-25T21:01:43.799Z,99681.44
2022-12-25T21:06:46.628Z,99681.94
2022-12-25T21:11:50.709Z,99673.63
2022-12-25T21:16:53.510Z,99664.41
2022-12-25T21:21:56.440Z,99674.56
2022-12-25T21:27:00.843Z,99675.44
2022-12-25T21:32:21.264Z,99675.31
2022-12-25T21:37:24.084Z,99682.22
2022-12-25T21:42:28.257Z,99660.16
2022-12-25T21:48:02.655Z,99661.00
2022-12-25T21:52:53.853Z,99661.84
2022-12-25T21:57:58.024Z,99649.94
2022-12-25T22:03:01.100Z,99665.63
2022-12-25T22:08:04.409Z,99672.59
2022-12-25T22:13:28.250Z,99685.09
2022-12-25T22:18:48.745Z,99690.34
2022-12-25T22:23:52.269Z,99679.19
2022-12-25T22:28:56.480Z,99659.59
2022-12-25T22:33:59.314Z,99678.97
2022-12-25T22:39:02.078Z,99687.97
2022-12-25T22:44:17.022Z,99686.53
2022-12-25T22:49:21.438Z,99681.25
2022-12-25T22:54:25.772Z,99674.09
2022-12-25T22:59:29.926Z,99685.75
2022-12-25T23:04:32.995Z,99679.25
2022-12-25T23:09:35.777Z,99655.16
2022-12-25T23:14:40.266Z,99648.28
2022-12-25T23:20:05.826Z,99641.97
2022-12-25T23:25:32.948Z,99642.91
2022-12-25T23:30:37.125Z,99638.63
2022-12-25T23:35:39.909Z,99630.00
2022-12-25T23:40:42.692Z,99631.22
2022-12-25T23:45:46.893Z,99658.81
2022-12-25T23:50:49.627Z,99659.88
2022-12-25T23:55:55.888Z,99653.75
